createdAt,value
2023-04-11T00:00:29.356Z,12.08
2023-04-11T00:03:00.092Z,12.00
2023-04-11T00:05:27.993Z,11.94
2023-04-11T00:07:54.570Z,11.85
2023-04-11T00:10:21.110Z,11.81
2023-04-11T00:12:47.585Z,11.81
2023-04-11T00:15:16.176Z,11.74
2023-04-11T00:17:45.664Z,11.71
2023-04-11T00:20:13.064Z,11.69
2023-04-11T00:22:39.663Z,11.64
2023-04-11T00:25:07.091Z,11.63
2023-04-11T00:27:33.649Z,11.60
2023-04-11T00:30:00.732Z,11.59
2023-04-11T00:32:27.753Z,11.54
2023-04-11T00:34:55.260Z,11.53
2023-04-11T00:37:22.167Z,11.35
2023-04-11T00:39:52.930Z,11.46
2023-04-11T00:42:20.064Z,11.24
2023-04-11T00:44:46.551Z,11.35
2023-04-11T00:47:13.825Z,11.17
2023-04-11T00:49:40.951Z,11.13
2023-04-11T00:52:07.508Z,11.21
2023-04-11T00:54:34.260Z,11.15
2023-04-11T00:57:01.805Z,11.14
2023-04-11T00:59:29.477Z,11.08
2023-04-11T01:01:56.511Z,11.00
2023-04-11T01:04:23.987Z,11.00
2023-04-11T01:06:53.297Z,10.96
2023-04-11T01:09:21.996Z,10.92
2023-04-11T01:11:49.755Z,10.88
2023-04-11T01:14:17.039Z,10.74
2023-04-11T01:16:46.966Z,10.83
2023-04-11T01:19:18.704Z,10.65
2023-04-11T01:21:46.079Z,10.67
2023-04-11T01:24:12.615Z,10.56
2023-04-11T01:26:39.058Z,10.65
2023-04-11T01:29:05.587Z,10.58
2023-04-11T01:31:32.636Z,10.54
2023-04-11T01:34:00.370Z,10.50
2023-04-11T01:36:27.395Z,10.45
2023-04-11T01:38:54.074Z,10.27
2023-04-11T01:41:21.499Z,10.39
2023-04-11T01:43:48.311Z,10.27
2023-04-11T01:46:15.567Z,10.23
2023-04-11T01:48:42.671Z,10.16
2023-04-11T01:51:09.372Z,10.29
2023-04-11T01:53:35.808Z,10.29
2023-04-11T01:56:02.264Z,10.28
2023-04-11T01:58:28.808Z,10.29
2023-04-11T02:00:55.447Z,10.29
2023-04-11T02:03:22.604Z,10.25
2023-04-11T02:05:49.233Z,10.17
2023-04-11T02:08:15.716Z,10.26
2023-04-11T02:10:42.210Z,10.26
2023-04-11T02:13:08.641Z,10.13
2023-04-11T02:15:35.119Z,10.21
2023-04-11T02:18:01.859Z,10.22
2023-04-11T02:20:29.031Z,10.14
2023-04-11T02:22:55.805Z,10.16
2023-04-11T02:25:22.273Z,10.15
2023-04-11T02:27:48.823Z,10.13
2023-04-11T02:30:15.314Z,10.09
2023-04-11T02:32:42.884Z,10.05
2023-04-11T02:35:09.544Z,10.09
2023-04-11T02:37:36.426Z,10.09
2023-04-11T02:40:04.296Z,10.09
2023-04-11T02:42:30.903Z,10.09
2023-04-11T02:44:57.376Z,10.07
2023-04-11T02:47:24.208Z,10.08
2023-04-11T02:49:52.207Z,10.08
2023-04-11T02:52:19.170Z,10.07
2023-04-11T02:54:46.033Z,10.09
2023-04-11T02:57:12.637Z,10.01
2023-04-11T02:59:39.143Z,10.08
2023-04-11T03:02:05.728Z,10.07
2023-04-11T03:04:32.448Z,10.00
2023-04-11T03:06:59.022Z,10.05
2023-04-11T03:09:25.993Z,10.05
2023-04-11T03:11:52.505Z,10.06
2023-04-11T03:14:19.009Z,10.05
2023-04-11T03:16:45.561Z,10.03
2023-04-11T03:19:12.055Z,10.03
2023-04-11T03:21:38.571Z,10.04
2023-04-11T03:24:05.528Z,10.03
2023-04-11T03:26:32.245Z,10.05
2023-04-11T03:28:59.057Z,10.05
2023-04-11T03:31:25.827Z,10.02
2023-04-11T03:33:52.487Z,9.97
2023-04-11T03:36:19.048Z,9.37
2023-04-11T03:38:45.509Z,10.00
2023-04-11T03:41:12.084Z,9.99
2023-04-11T03:43:38.589Z,9.98
2023-04-11T03:46:05.690Z,9.96
2023-04-11T03:48:32.116Z,9.94
2023-04-11T03:50:58.611Z,9.92
2023-04-11T03:53:25.373Z,9.83
2023-04-11T03:55:53.610Z,9.76
2023-04-11T03:58:20.184Z,9.67
2023-04-11T04:00:47.128Z,9.57
2023-04-11T04:03:13.826Z,9.57
2023-04-11T04:05:41.360Z,9.45
2023-04-11T04:08:07.875Z,9.44
2023-04-11T04:10:34.308Z,9.39
2023-04-11T04:13:00.734Z,9.23
2023-04-11T04:15:27.249Z,9.25
2023-04-11T04:17:53.786Z,9.28
2023-04-11T04:20:20.367Z,9.27
2023-04-11T04:22:47.314Z,9.17
2023-04-11T04:25:15.752Z,9.23
2023-04-11T04:27:46.692Z,9.26
2023-04-11T04:30:15.579Z,9.23
2023-04-11T04:32:45.798Z,9.03
2023-04-11T04:35:14.189Z,9.23
2023-04-11T04:37:45.715Z,9.23
2023-04-11T04:40:20.546Z,9.24
2023-04-11T04:42:49.892Z,9.17
2023-04-11T04:45:16.417Z,9.20
2023-04-11T04:47:42.976Z,9.22
2023-04-11T04:50:09.969Z,9.21
2023-04-11T04:52:36.519Z,9.19
2023-04-11T04:55:03.858Z,9.04
2023-04-11T04:57:32.103Z,9.14
2023-04-11T04:59:58.869Z,9.12
2023-04-11T05:02:26.819Z,9.00
2023-04-11T05:04:56.947Z,9.10
2023-04-11T05:07:23.600Z,9.09
2023-04-11T05:09:50.258Z,9.05
2023-04-11T05:12:17.187Z,9.04
2023-04-11T05:14:43.779Z,9.04
2023-04-11T05:17:10.268Z,9.04
2023-04-11T05:19:36.799Z,9.02
2023-04-11T05:22:03.357Z,9.02
2023-04-11T05:24:29.853Z,9.03
2023-04-11T05:26:56.680Z,9.02
2023-04-11T05:29:23.245Z,9.00
2023-04-11T05:31:49.865Z,8.97
2023-04-11T05:34:16.327Z,8.98
2023-04-11T05:36:42.972Z,8.88
2023-04-11T05:39:09.406Z,8.95
2023-04-11T05:41:35.944Z,8.97
2023-04-11T05:44:02.423Z,8.89
2023-04-11T05:46:29.537Z,8.96
2023-04-11T05:48:57.994Z,8.96
2023-04-11T05:51:24.766Z,8.85
2023-04-11T05:53:51.185Z,8.86
2023-04-11T05:56:17.702Z,8.91
2023-04-11T05:58:44.447Z,8.93
2023-04-11T06:01:20.087Z,8.93
2023-04-11T06:03:47.014Z,8.94
2023-04-11T06:06:14.082Z,8.85
2023-04-11T06:08:40.907Z,8.94
2023-04-11T06:11:07.549Z,8.95
2023-04-11T06:13:34.006Z,8.80
2023-04-11T06:16:01.278Z,9.02
2023-04-11T06:18:27.852Z,9.06
2023-04-11T06:20:54.324Z,9.09
2023-04-11T06:23:21.344Z,9.14
2023-04-11T06:25:47.900Z,9.21
2023-04-11T06:28:14.391Z,9.24
2023-04-11T06:30:41.702Z,9.33
2023-04-11T06:33:08.196Z,9.19
2023-04-11T06:35:34.769Z,9.31
2023-04-11T06:38:01.235Z,9.35
2023-04-11T06:40:27.783Z,9.39
2023-04-11T06:42:55.329Z,9.31
2023-04-11T06:45:21.831Z,9.52
2023-04-11T06:47:49.873Z,9.59
2023-04-11T06:50:16.499Z,9.64
2023-04-11T06:52:42.997Z,9.49
2023-04-11T06:55:10.246Z,9.57
2023-04-11T06:57:36.811Z,9.75
2023-04-11T07:00:06.938Z,9.66
2023-04-11T07:02:35.760Z,9.71
2023-04-11T07:05:03.337Z,9.76
2023-04-11T07:07:29.807Z,9.83
2023-04-11T07:09:56.326Z,9.84
2023-04-11T07:12:22.902Z,9.81
2023-04-11T07:14:49.544Z,10.10
2023-04-11T07:17:16.365Z,10.32
2023-04-11T07:19:42.756Z,10.55
2023-04-11T07:22:09.307Z,10.64
2023-04-11T07:24:36.251Z,11.03
2023-04-11T07:27:02.818Z,11.20
2023-04-11T07:29:29.246Z,11.12
2023-04-11T07:31:55.952Z,10.94
2023-04-11T07:34:22.632Z,10.71
2023-04-11T07:36:50.097Z,10.53
2023-04-11T07:39:16.923Z,10.42
2023-04-11T07:41:43.437Z,10.63
2023-04-11T07:44:10.068Z,10.61
2023-04-11T07:46:36.667Z,10.94
2023-04-11T07:49:03.258Z,11.02
2023-04-11T07:51:29.686Z,11.06
2023-04-11T07:53:56.521Z,11.21
2023-04-11T07:56:23.272Z,11.32
2023-04-11T07:58:50.107Z,11.33
2023-04-11T08:01:26.894Z,11.20
2023-04-11T08:03:55.011Z,11.11
2023-04-11T08:06:22.057Z,11.10
2023-04-11T08:08:49.246Z,11.14
2023-04-11T08:11:15.901Z,11.24
2023-04-11T08:13:42.962Z,11.44
2023-04-11T08:16:11.057Z,11.69
2023-04-11T08:18:37.601Z,11.75
2023-04-11T08:21:04.345Z,12.12
2023-04-11T08:23:30.801Z,12.13
2023-04-11T08:25:57.421Z,11.64
2023-04-11T08:28:24.226Z,11.45
2023-04-11T08:30:58.486Z,11.45
2023-04-11T08:33:32.245Z,11.61
2023-04-11T08:36:07.554Z,11.81
2023-04-11T08:38:36.284Z,12.14
2023-04-11T08:41:04.341Z,12.33
2023-04-11T08:43:41.080Z,12.33
2023-04-11T08:46:10.282Z,12.27
2023-04-11T08:48:40.057Z,12.34
2023-04-11T08:51:08.624Z,12.28
2023-04-11T08:53:38.762Z,12.45
2023-04-11T08:56:07.199Z,12.75
2023-04-11T08:58:35.642Z,12.95
2023-04-11T09:01:30.461Z,13.08
2023-04-11T09:04:02.213Z,13.02
2023-04-11T09:06:34.721Z,12.64
2023-04-11T09:09:09.247Z,12.26
2023-04-11T09:11:56.456Z,11.74
2023-04-11T09:14:27.797Z,10.97
2023-04-11T09:16:57.656Z,10.71
2023-04-11T09:19:29.331Z,10.41
2023-04-11T09:22:00.409Z,10.16
2023-04-11T09:24:27.954Z,9.85
2023-04-11T09:27:10.626Z,9.52
2023-04-11T09:29:42.231Z,9.34
2023-04-11T09:32:27.532Z,9.07
2023-04-11T09:35:15.778Z,8.89
2023-04-11T09:38:09.323Z,8.73
2023-04-11T09:40:42.631Z,8.54
2023-04-11T09:43:09.141Z,8.63
2023-04-11T09:45:44.193Z,8.87
2023-04-11T09:48:18.573Z,9.29
2023-04-11T09:50:45.546Z,9.60
2023-04-11T09:53:12.370Z,9.76
2023-04-11T09:55:41.663Z,9.84
2023-04-11T09:58:09.823Z,9.91
2023-04-11T10:00:36.589Z,10.35
2023-04-11T10:03:03.509Z,10.66
2023-04-11T10:05:30.421Z,10.91
2023-04-11T10:08:04.962Z,11.24
2023-04-11T10:10:32.057Z,11.57
2023-04-11T10:12:58.814Z,11.64
2023-04-11T10:15:25.366Z,12.01
2023-04-11T10:18:11.701Z,12.28
2023-04-11T10:20:46.397Z,12.56
2023-04-11T10:23:13.936Z,12.83
2023-04-11T10:25:52.840Z,13.00
2023-04-11T10:28:33.259Z,12.97
2023-04-11T10:31:13.247Z,13.03
2023-04-11T10:33:41.002Z,13.24
2023-04-11T10:36:11.341Z,13.60
2023-04-11T10:38:41.082Z,13.86
2023-04-11T10:41:22.680Z,13.78
2023-04-11T10:43:49.850Z,13.54
2023-04-11T10:46:24.342Z,13.42
2023-04-11T10:49:01.420Z,13.29
2023-04-11T10:51:29.970Z,12.77
2023-04-11T10:53:59.525Z,12.00
2023-04-11T10:56:49.249Z,11.22
2023-04-11T10:59:36.847Z,10.86
2023-04-11T11:02:03.589Z,10.58
2023-04-11T11:04:37.609Z,10.38
2023-04-11T11:07:06.752Z,10.12
2023-04-11T11:09:34.758Z,10.16
2023-04-11T11:12:14.926Z,10.34
2023-04-11T11:14:46.700Z,10.50
2023-04-11T11:17:14.346Z,10.46
2023-04-11T11:19:45.011Z,10.56
2023-04-11T11:22:18.791Z,10.87
2023-04-11T11:24:45.387Z,11.08
2023-04-11T11:27:22.626Z,11.31
2023-04-11T11:29:49.835Z,11.62
2023-04-11T11:32:28.660Z,12.00
2023-04-11T11:34:57.389Z,12.33
2023-04-11T11:37:24.018Z,12.40
2023-04-11T11:39:50.923Z,12.22
2023-04-11T11:42:17.690Z,12.14
2023-04-11T11:44:44.297Z,12.32
2023-04-11T11:47:12.861Z,12.41
2023-04-11T11:49:54.789Z,12.58
2023-04-11T11:52:41.480Z,12.58
2023-04-11T11:55:20.004Z,12.82
2023-04-11T11:57:47.237Z,12.76
2023-04-11T12:00:14.955Z,12.69
2023-04-11T12:02:45.119Z,12.48
2023-04-11T12:05:12.422Z,12.80
2023-04-11T12:07:39.527Z,12.69
2023-04-11T12:10:13.773Z,12.65
2023-04-11T12:12:53.729Z,12.52
2023-04-11T12:15:22.817Z,12.62
2023-04-11T12:17:50.716Z,12.55
2023-04-11T12:20:21.691Z,12.61
2023-04-11T12:22:48.417Z,12.56
2023-04-11T12:25:15.523Z,12.51
2023-04-11T12:27:43.332Z,12.58
2023-04-11T12:30:11.384Z,12.61
2023-04-11T12:32:38.087Z,12.66
2023-04-11T12:35:06.331Z,12.81
2023-04-11T12:37:33.499Z,13.15
2023-04-11T12:40:00.571Z,13.41
2023-04-11T12:42:27.557Z,13.52
2023-04-11T12:44:54.529Z,13.53
2023-04-11T12:47:21.196Z,13.50
2023-04-11T12:49:47.741Z,13.42
2023-04-11T12:52:14.291Z,13.34
2023-04-11T12:54:41.125Z,13.30
2023-04-11T12:57:07.856Z,13.28
2023-04-11T12:59:34.335Z,13.26
2023-04-11T13:02:01.488Z,13.23
2023-04-11T13:04:28.364Z,13.47
2023-04-11T13:06:54.922Z,13.88
2023-04-11T13:09:21.386Z,14.58
2023-04-11T13:11:49.024Z,14.93
2023-04-11T13:14:15.516Z,14.79
2023-04-11T13:16:43.275Z,14.69
2023-04-11T13:19:09.818Z,14.87
2023-04-11T13:21:37.305Z,14.89
2023-04-11T13:24:03.794Z,14.77
2023-04-11T13:26:30.297Z,14.58
2023-04-11T13:28:57.435Z,14.62
2023-04-11T13:31:26.686Z,14.60
2023-04-11T13:33:53.535Z,14.59
2023-04-11T13:36:20.084Z,14.37
2023-04-11T13:38:47.354Z,14.09
2023-04-11T13:41:14.884Z,14.12
2023-04-11T13:43:41.716Z,14.12
2023-04-11T13:46:08.690Z,14.08
2023-04-11T13:48:35.460Z,14.08
2023-04-11T13:51:01.976Z,13.94
2023-04-11T13:53:28.472Z,14.19
2023-04-11T13:55:55.022Z,14.21
2023-04-11T13:58:22.245Z,14.15
2023-04-11T14:00:50.320Z,14.08
2023-04-11T14:03:17.048Z,14.02
2023-04-11T14:05:43.788Z,14.10
2023-04-11T14:08:10.599Z,14.18
2023-04-11T14:10:37.195Z,14.11
2023-04-11T14:13:05.318Z,13.76
2023-04-11T14:15:31.897Z,13.56
2023-04-11T14:17:58.420Z,13.45
2023-04-11T14:20:25.417Z,13.40
2023-04-11T14:22:52.142Z,13.41
2023-04-11T14:25:19.210Z,13.36
2023-04-11T14:27:45.735Z,13.39
2023-04-11T14:30:13.017Z,13.43
2023-04-11T14:32:40.500Z,13.40
2023-04-11T14:35:08.576Z,13.32
2023-04-11T14:37:35.512Z,13.27
2023-04-11T14:40:05.032Z,13.13
2023-04-11T14:42:31.742Z,13.34
2023-04-11T14:44:58.204Z,13.36
2023-04-11T14:47:24.867Z,13.33
2023-04-11T14:49:51.397Z,13.21
2023-04-11T14:52:17.978Z,13.19
2023-04-11T14:54:44.439Z,13.21
2023-04-11T14:57:10.971Z,13.14
2023-04-11T14:59:37.640Z,13.11
2023-04-11T15:02:05.025Z,12.97
2023-04-11T15:04:31.902Z,12.86
2023-04-11T15:06:59.119Z,12.46
2023-04-11T15:09:25.682Z,12.17
2023-04-11T15:11:52.443Z,11.91
2023-04-11T15:14:19.171Z,11.50
2023-04-11T15:16:45.700Z,11.07
2023-04-11T15:19:12.217Z,10.52
2023-04-11T15:21:38.701Z,10.36
2023-04-11T15:24:07.371Z,10.18
2023-04-11T15:26:34.382Z,9.97
2023-04-11T15:29:00.938Z,9.87
2023-04-11T15:31:27.619Z,9.85
2023-04-11T15:33:57.168Z,9.85
2023-04-11T15:36:24.127Z,9.87
2023-04-11T15:38:50.890Z,9.84
2023-04-11T15:41:17.480Z,9.68
2023-04-11T15:43:44.072Z,9.88
2023-04-11T15:46:10.690Z,9.79
2023-04-11T15:48:37.150Z,9.89
2023-04-11T15:51:10.778Z,9.83
2023-04-11T15:53:37.434Z,10.03
2023-04-11T15:56:06.091Z,10.04
2023-04-11T15:58:33.842Z,10.09
2023-04-11T16:01:01.636Z,10.07
2023-04-11T16:03:32.217Z,10.12
2023-04-11T16:05:59.794Z,10.14
2023-04-11T16:08:27.501Z,10.04
2023-04-11T16:10:54.490Z,10.06
2023-04-11T16:13:21.238Z,10.03
2023-04-11T16:15:47.803Z,10.16
2023-04-11T16:18:15.814Z,10.19
2023-04-11T16:20:42.302Z,10.23
2023-04-11T16:23:10.264Z,10.32
2023-04-11T16:25:37.565Z,10.35
2023-04-11T16:28:04.055Z,10.63
2023-04-11T16:30:30.479Z,10.67
2023-04-11T16:32:57.252Z,10.86
2023-04-11T16:35:23.751Z,11.03
2023-04-11T16:37:50.714Z,11.08
2023-04-11T16:40:17.180Z,11.09
2023-04-11T16:42:43.781Z,10.99
2023-04-11T16:45:10.752Z,10.73
2023-04-11T16:47:37.807Z,10.70
2023-04-11T16:50:05.734Z,10.53
2023-04-11T16:52:32.558Z,10.41
2023-04-11T16:54:59.054Z,10.36
2023-04-11T16:57:25.662Z,10.27
2023-04-11T16:59:52.159Z,10.40
2023-04-11T17:02:18.708Z,10.47
2023-04-11T17:04:45.252Z,10.52
2023-04-11T17:07:11.763Z,10.55
2023-04-11T17:09:39.354Z,10.58
2023-04-11T17:12:06.108Z,10.65
2023-04-11T17:14:34.912Z,10.65
2023-04-11T17:17:01.564Z,10.62
2023-04-11T17:19:28.271Z,10.56
2023-04-11T17:21:54.709Z,10.39
2023-04-11T17:24:21.173Z,10.47
2023-04-11T17:26:47.704Z,10.45
2023-04-11T17:29:14.230Z,10.43
2023-04-11T17:31:40.691Z,10.45
2023-04-11T17:34:07.273Z,10.32
2023-04-11T17:36:33.783Z,10.45
2023-04-11T17:39:00.315Z,10.40
2023-04-11T17:41:32.605Z,10.32
2023-04-11T17:43:59.382Z,10.27
2023-04-11T17:46:26.302Z,10.28
2023-04-11T17:48:52.908Z,10.24
2023-04-11T17:51:19.430Z,10.19
2023-04-11T17:53:45.868Z,9.99
2023-04-11T17:56:12.583Z,10.00
2023-04-11T17:58:44.092Z,9.93
2023-04-11T18:01:11.212Z,9.72
2023-04-11T18:03:38.369Z,9.85
2023-04-11T18:06:06.331Z,9.80
2023-04-11T18:08:49.210Z,9.70
2023-04-11T18:11:16.680Z,9.58
2023-04-11T18:13:43.773Z,9.48
2023-04-11T18:16:11.006Z,9.31
2023-04-11T18:18:37.601Z,9.34
2023-04-11T18:21:07.176Z,9.34
2023-04-11T18:23:34.015Z,9.17
2023-04-11T18:26:00.554Z,9.28
2023-04-11T18:28:26.997Z,9.29
2023-04-11T18:30:53.562Z,9.27
2023-04-11T18:33:20.948Z,9.24
2023-04-11T18:35:47.785Z,9.07
2023-04-11T18:38:14.461Z,9.16
2023-04-11T18:40:41.175Z,9.09
2023-04-11T18:43:08.206Z,9.00
2023-04-11T18:45:35.206Z,8.98
2023-04-11T18:48:02.191Z,8.74
2023-04-11T18:50:30.626Z,8.92
2023-04-11T18:53:00.385Z,8.97
2023-04-11T18:55:30.714Z,9.00
2023-04-11T18:57:59.977Z,8.86
2023-04-11T19:00:28.737Z,8.84
2023-04-11T19:02:55.465Z,8.81
2023-04-11T19:05:25.084Z,8.66
2023-04-11T19:07:52.820Z,8.67
2023-04-11T19:10:19.714Z,8.60
2023-04-11T19:12:46.156Z,8.51
2023-04-11T19:15:12.820Z,8.41
2023-04-11T19:17:39.505Z,8.29
2023-04-11T19:20:07.188Z,8.23
2023-04-11T19:22:34.640Z,8.12
2023-04-11T19:25:01.103Z,8.03
2023-04-11T19:27:27.582Z,8.00
2023-04-11T19:29:54.227Z,7.95
2023-04-11T19:32:20.927Z,7.87
2023-04-11T19:34:49.524Z,7.75
2023-04-11T19:37:16.555Z,7.67
2023-04-11T19:39:43.713Z,7.47
2023-04-11T19:42:10.626Z,7.50
2023-04-11T19:44:37.727Z,7.31
2023-04-11T19:47:04.287Z,7.42
2023-04-11T19:49:30.885Z,7.16
2023-04-11T19:51:57.409Z,7.20
2023-04-11T19:54:23.983Z,7.06
2023-04-11T19:56:53.708Z,7.00
2023-04-11T19:59:20.574Z,6.95
2023-04-11T20:01:47.207Z,6.86
2023-04-11T20:04:15.703Z,6.87
2023-04-11T20:06:44.163Z,6.80
2023-04-11T20:09:11.660Z,6.70
2023-04-11T20:11:39.141Z,6.65
2023-04-11T20:14:06.860Z,6.46
2023-04-11T20:16:33.410Z,6.56
2023-04-11T20:19:01.495Z,6.55
2023-04-11T20:21:28.093Z,6.59
2023-04-11T20:23:54.683Z,6.60
2023-04-11T20:26:21.767Z,6.62
2023-04-11T20:28:49.831Z,6.62
2023-04-11T20:31:16.384Z,6.43
2023-04-11T20:33:44.161Z,6.54
2023-04-11T20:36:11.303Z,6.52
2023-04-11T20:38:37.998Z,6.47
2023-04-11T20:41:05.760Z,6.50
2023-04-11T20:43:32.431Z,6.49
2023-04-11T20:45:59.005Z,6.52
2023-04-11T20:48:25.868Z,6.47
2023-04-11T20:50:55.727Z,6.34
2023-04-11T20:53:22.255Z,6.48
2023-04-11T20:55:48.853Z,6.42
2023-04-11T20:58:18.527Z,6.37
2023-04-11T21:00:45.451Z,6.34
2023-04-11T21:03:12.506Z,6.25
2023-04-11T21:05:39.805Z,6.18
2023-04-11T21:08:06.604Z,6.10
2023-04-11T21:10:33.255Z,6.07
2023-04-11T21:12:59.794Z,6.06
2023-04-11T21:15:26.395Z,6.00
2023-04-11T21:17:52.933Z,5.88
2023-04-11T21:20:20.236Z,5.83
2023-04-11T21:22:47.630Z,5.77
2023-04-11T21:25:14.514Z,5.75
2023-04-11T21:27:41.377Z,5.76
2023-04-11T21:30:11.647Z,5.73
2023-04-11T21:32:39.190Z,5.62
2023-04-11T21:35:07.795Z,5.53
2023-04-11T21:37:34.644Z,5.60
2023-04-11T21:40:01.328Z,5.63
2023-04-11T21:42:27.854Z,5.62
2023-04-11T21:44:54.340Z,5.58
2023-04-11T21:47:21.383Z,5.53
2023-04-11T21:49:48.183Z,5.36
2023-04-11T21:52:14.633Z,5.45
2023-04-11T21:54:44.031Z,5.38
2023-04-11T21:57:10.970Z,5.35
2023-04-11T21:59:38.740Z,5.30
2023-04-11T22:02:05.601Z,5.24
2023-04-11T22:04:37.241Z,5.03
2023-04-11T22:07:14.964Z,5.15
2023-04-11T22:09:46.463Z,5.16
2023-04-11T22:12:17.309Z,5.11
2023-04-11T22:14:43.741Z,5.06
2023-04-11T22:17:10.223Z,5.03
2023-04-11T22:19:36.626Z,5.02
2023-04-11T22:22:03.586Z,4.94
2023-04-11T22:24:32.872Z,4.79
2023-04-11T22:26:59.382Z,4.94
2023-04-11T22:29:31.020Z,4.92
2023-04-11T22:31:59.476Z,4.97
2023-04-11T22:34:29.969Z,4.91
2023-04-11T22:36:57.761Z,4.88
2023-04-11T22:39:25.440Z,4.79
2023-04-11T22:41:53.344Z,4.83
2023-04-11T22:44:19.967Z,4.87
2023-04-11T22:47:01.170Z,4.83
2023-04-11T22:49:27.754Z,4.84
2023-04-11T22:51:59.028Z,4.80
2023-04-11T22:54:28.605Z,4.68
2023-04-11T22:56:57.215Z,4.72
2023-04-11T22:59:24.877Z,4.67
2023-04-11T23:01:51.841Z,4.65
2023-04-11T23:04:19.693Z,4.68
2023-04-11T23:06:53.679Z,4.58
2023-04-11T23:09:20.695Z,4.52
2023-04-11T23:11:47.617Z,4.48
2023-04-11T23:14:15.338Z,4.46
2023-04-11T23:16:43.358Z,4.45
2023-04-11T23:19:10.461Z,4.44
2023-04-11T23:21:37.785Z,4.40
2023-04-11T23:24:05.511Z,4.37
2023-04-11T23:26:32.183Z,4.32
2023-04-11T23:29:00.566Z,4.36
2023-04-11T23:31:27.381Z,4.17
2023-04-11T23:33:53.967Z,4.30
2023-04-11T23:36:20.922Z,4.33
2023-04-11T23:38:47.569Z,4.20
2023-04-11T23:41:14.707Z,4.24
2023-04-11T23:43:41.302Z,4.19
2023-04-11T23:46:07.906Z,4.11
2023-04-11T23:48:34.438Z,4.09
2023-04-11T23:51:01.295Z,4.08
2023-04-11T23:53:27.802Z,4.08
2023-04-11T23:55:54.297Z,4.02
2023-04-11T23:58:20.852Z,4.04
